createdAt,value
2023-08-28T00:01:42.328Z,17.36
2023-08-28T00:06:45.074Z,17.31
2023-08-28T00:11:47.861Z,17.26
2023-08-28T00:16:50.633Z,17.21
2023-08-28T00:21:53.423Z,17.17
2023-08-28T00:26:56.602Z,17.14
2023-08-28T00:31:59.424Z,17.16
2023-08-28T00:37:02.269Z,17.19
2023-08-28T00:42:05.913Z,17.21
2023-08-28T00:47:11.985Z,17.23
2023-08-28T00:52:15.283Z,17.20
2023-08-28T00:57:18.618Z,17.11
2023-08-28T01:02:22.674Z,17.05
2023-08-28T01:07:31.998Z,17.01
2023-08-28T01:12:45.141Z,16.97
2023-08-28T01:17:55.493Z,16.94
2023-08-28T01:23:06.341Z,16.89
2023-08-28T01:28:09.106Z,16.87
2023-08-28T01:33:11.983Z,16.85
2023-08-28T01:38:27.781Z,16.83
2023-08-28T01:43:35.664Z,16.82
2023-08-28T01:48:46.179Z,16.84
2023-08-28T01:53:49.422Z,16.86
2023-08-28T01:58:57.170Z,16.89
2023-08-28T02:04:00.156Z,16.91
2023-08-28T02:09:03.028Z,16.92
2023-08-28T02:14:05.950Z,16.92
2023-08-28T02:19:09.438Z,16.92
2023-08-28T02:24:12.285Z,16.93
2023-08-28T02:29:15.379Z,16.99
2023-08-28T02:34:18.182Z,17.01
2023-08-28T02:39:21.040Z,16.98
2023-08-28T02:44:23.776Z,16.94
2023-08-28T02:49:26.529Z,16.94
2023-08-28T02:54:29.379Z,16.88
2023-08-28T02:59:32.949Z,16.78
2023-08-28T03:04:35.778Z,16.72
2023-08-28T03:09:39.290Z,16.69
2023-08-28T03:14:42.214Z,16.69
2023-08-28T03:19:45.209Z,16.69
2023-08-28T03:24:48.559Z,16.66
2023-08-28T03:29:51.427Z,16.62
2023-08-28T03:34:55.345Z,16.57
2023-08-28T03:39:58.083Z,16.53
2023-08-28T03:45:01.427Z,16.49
2023-08-28T03:50:05.122Z,16.46
2023-08-28T03:55:09.574Z,16.43
2023-08-28T04:00:15.942Z,16.42
2023-08-28T04:05:18.918Z,16.42
2023-08-28T04:10:22.273Z,16.41
2023-08-28T04:15:25.211Z,16.43
2023-08-28T04:20:28.230Z,16.45
2023-08-28T04:25:31.162Z,16.47
2023-08-28T04:30:34.038Z,16.50
2023-08-28T04:35:37.004Z,16.52
2023-08-28T04:40:40.070Z,16.53
2023-08-28T04:45:42.931Z,16.50
2023-08-28T04:50:45.994Z,16.50
2023-08-28T04:55:48.735Z,16.46
2023-08-28T05:00:52.049Z,16.47
2023-08-28T05:05:55.543Z,16.48
2023-08-28T05:10:58.358Z,16.49
2023-08-28T05:16:03.716Z,16.52
2023-08-28T05:21:06.880Z,16.56
2023-08-28T05:26:11.382Z,16.54
2023-08-28T05:31:14.216Z,16.57
2023-08-28T05:36:17.617Z,16.62
2023-08-28T05:41:20.981Z,16.67
2023-08-28T05:46:23.812Z,16.72
2023-08-28T05:51:26.825Z,16.79
2023-08-28T05:56:30.073Z,16.85
2023-08-28T06:01:33.672Z,16.93
2023-08-28T06:06:38.669Z,16.98
2023-08-28T06:11:44.059Z,17.03
2023-08-28T06:16:46.930Z,17.09
2023-08-28T06:21:50.425Z,17.11
2023-08-28T06:26:53.656Z,17.09
2023-08-28T06:31:56.513Z,17.12
2023-08-28T06:36:59.314Z,17.19
2023-08-28T06:42:02.031Z,17.37
2023-08-28T06:47:05.401Z,17.49
2023-08-28T06:52:10.235Z,17.54
2023-08-28T06:57:12.990Z,17.57
2023-08-28T07:02:16.059Z,17.53
2023-08-28T07:07:21.371Z,17.52
2023-08-28T07:12:24.205Z,17.54
2023-08-28T07:17:27.103Z,17.54
2023-08-28T07:22:29.955Z,17.57
2023-08-28T07:27:32.724Z,17.61
2023-08-28T07:32:35.633Z,17.64
2023-08-28T07:37:39.052Z,17.66
2023-08-28T07:42:42.384Z,17.72
2023-08-28T07:47:46.036Z,17.78
2023-08-28T07:52:49.046Z,17.79
2023-08-28T07:57:52.524Z,17.82
2023-08-28T08:02:55.395Z,17.84
2023-08-28T08:07:58.763Z,17.84
2023-08-28T08:13:01.958Z,17.83
2023-08-28T08:18:05.642Z,17.92
2023-08-28T08:23:08.400Z,17.96
2023-08-28T08:28:11.122Z,18.03
2023-08-28T08:33:13.902Z,18.09
2023-08-28T08:38:16.984Z,18.22
2023-08-28T08:43:20.351Z,18.36
2023-08-28T08:48:25.906Z,18.46
2023-08-28T08:53:33.174Z,18.53
2023-08-28T08:58:35.985Z,18.61
2023-08-28T09:03:43.798Z,18.68
2023-08-28T09:08:47.500Z,18.75
2023-08-28T09:13:50.968Z,18.89
2023-08-28T09:18:54.602Z,19.02
2023-08-28T09:23:59.439Z,19.02
2023-08-28T09:29:05.390Z,18.96
2023-08-28T09:34:09.922Z,18.94
2023-08-28T09:39:13.943Z,18.91
2023-08-28T09:44:18.551Z,18.91
2023-08-28T09:49:21.264Z,18.88
2023-08-28T09:54:25.788Z,18.92
2023-08-28T09:59:28.849Z,18.94
2023-08-28T10:04:35.314Z,18.92
2023-08-28T10:09:40.793Z,18.84
2023-08-28T10:14:44.804Z,18.77
2023-08-28T10:19:56.035Z,18.71
2023-08-28T10:24:59.857Z,18.65
2023-08-28T10:30:05.117Z,18.74
2023-08-28T10:35:11.251Z,18.95
2023-08-28T10:40:14.438Z,19.01
2023-08-28T10:45:19.392Z,18.93
2023-08-28T10:50:22.450Z,18.82
2023-08-28T10:55:25.481Z,18.73
2023-08-28T11:00:30.191Z,18.61
2023-08-28T11:05:34.567Z,18.56
2023-08-28T11:10:46.572Z,18.55
2023-08-28T11:15:51.065Z,18.49
2023-08-28T11:21:07.304Z,18.45
2023-08-28T11:26:16.610Z,18.52
2023-08-28T11:31:21.003Z,18.50
2023-08-28T11:36:23.877Z,18.49
2023-08-28T11:41:26.860Z,18.44
2023-08-28T11:46:29.618Z,18.38
2023-08-28T11:51:33.055Z,18.39
2023-08-28T11:56:35.860Z,18.44
2023-08-28T12:01:39.571Z,18.47
2023-08-28T12:06:43.445Z,18.41
2023-08-28T12:11:47.827Z,18.33
2023-08-28T12:16:52.039Z,18.34
2023-08-28T12:22:07.551Z,18.39
2023-08-28T12:27:12.076Z,18.43
2023-08-28T12:32:20.695Z,18.47
2023-08-28T12:37:24.074Z,18.43
2023-08-28T12:42:27.129Z,18.34
2023-08-28T12:47:29.971Z,18.20
2023-08-28T12:52:33.003Z,18.13
2023-08-28T12:57:36.037Z,18.13
2023-08-28T13:02:39.262Z,18.23
2023-08-28T13:07:42.380Z,18.53
2023-08-28T13:12:45.852Z,18.85
2023-08-28T13:17:48.652Z,19.17
2023-08-28T13:22:51.582Z,19.54
2023-08-28T13:27:54.470Z,19.78
2023-08-28T13:32:59.848Z,19.66
2023-08-28T13:38:05.695Z,19.48
2023-08-28T13:43:08.562Z,19.29
2023-08-28T13:48:11.358Z,19.12
2023-08-28T13:53:15.924Z,18.99
2023-08-28T13:58:23.379Z,18.89
2023-08-28T14:03:28.770Z,18.80
2023-08-28T14:08:32.842Z,18.72
2023-08-28T14:13:37.763Z,18.63
2023-08-28T14:18:40.680Z,18.58
2023-08-28T14:23:43.760Z,18.58
2023-08-28T14:28:46.467Z,18.56
2023-08-28T14:33:49.191Z,18.51
2023-08-28T14:38:52.138Z,18.45
2023-08-28T14:43:57.212Z,18.39
2023-08-28T14:49:03.423Z,18.34
2023-08-28T14:54:06.710Z,18.26
2023-08-28T14:59:09.422Z,18.21
2023-08-28T15:04:12.225Z,18.19
2023-08-28T15:09:15.081Z,18.13
2023-08-28T15:14:17.905Z,18.01
2023-08-28T15:19:21.000Z,17.93
2023-08-28T15:24:23.821Z,17.88
2023-08-28T15:29:27.574Z,17.83
2023-08-28T15:34:30.493Z,17.80
2023-08-28T15:39:33.273Z,17.74
2023-08-28T15:44:36.473Z,17.65
2023-08-28T15:49:39.418Z,17.61
2023-08-28T15:54:45.928Z,17.56
2023-08-28T15:59:49.018Z,17.47
2023-08-28T16:04:52.204Z,17.39
2023-08-28T16:09:55.093Z,17.32
2023-08-28T16:15:00.679Z,17.26
2023-08-28T16:20:03.517Z,17.19
2023-08-28T16:25:09.191Z,17.14
2023-08-28T16:30:13.702Z,17.12
2023-08-28T16:35:16.411Z,17.12
2023-08-28T16:40:19.124Z,17.07
2023-08-28T16:45:22.138Z,17.03
2023-08-28T16:50:24.880Z,17.01
2023-08-28T16:55:27.682Z,16.91
2023-08-28T17:00:31.406Z,16.81
2023-08-28T17:05:34.288Z,16.73
2023-08-28T17:10:37.101Z,16.59
2023-08-28T17:15:39.834Z,16.44
2023-08-28T17:20:42.670Z,16.34
2023-08-28T17:25:46.562Z,16.30
2023-08-28T17:30:49.733Z,16.26
2023-08-28T17:35:52.798Z,16.20
2023-08-28T17:40:55.658Z,16.15
2023-08-28T17:45:58.806Z,16.10
2023-08-28T17:51:09.043Z,16.04
2023-08-28T17:56:12.193Z,15.97
2023-08-28T18:01:15.520Z,15.92
2023-08-28T18:06:18.332Z,15.87
2023-08-28T18:11:21.232Z,15.83
2023-08-28T18:16:24.207Z,15.80
2023-08-28T18:21:27.413Z,15.76
2023-08-28T18:26:31.068Z,15.70
2023-08-28T18:31:33.945Z,15.60
2023-08-28T18:36:36.865Z,15.55
2023-08-28T18:41:40.060Z,15.56
2023-08-28T18:46:42.917Z,15.55
2023-08-28T18:51:47.795Z,15.56
2023-08-28T18:56:51.150Z,15.53
2023-08-28T19:01:54.904Z,15.51
2023-08-28T19:06:57.573Z,15.46
2023-08-28T19:12:00.405Z,15.46
2023-08-28T19:17:03.199Z,15.52
2023-08-28T19:22:05.994Z,15.60
2023-08-28T19:27:08.991Z,15.63
2023-08-28T19:32:14.195Z,15.61
2023-08-28T19:37:16.989Z,15.55
2023-08-28T19:42:19.894Z,15.53
2023-08-28T19:47:23.522Z,15.58
2023-08-28T19:52:27.127Z,15.55
2023-08-28T19:57:29.944Z,15.51
2023-08-28T20:02:32.852Z,15.46
2023-08-28T20:07:35.900Z,15.45
2023-08-28T20:12:38.972Z,15.45
2023-08-28T20:17:41.863Z,15.46
2023-08-28T20:22:44.831Z,15.45
2023-08-28T20:27:48.175Z,15.41
2023-08-28T20:32:51.414Z,15.37
2023-08-28T20:37:54.194Z,15.31
2023-08-28T20:42:58.449Z,15.25
2023-08-28T20:48:01.281Z,15.21
2023-08-28T20:53:04.971Z,15.15
2023-08-28T20:58:07.867Z,15.13
2023-08-28T21:03:10.676Z,15.12
2023-08-28T21:08:13.880Z,15.09
2023-08-28T21:13:16.703Z,15.07
2023-08-28T21:18:19.624Z,15.07
2023-08-28T21:23:22.596Z,15.07
2023-08-28T21:28:26.825Z,15.08
2023-08-28T21:33:33.870Z,15.09
2023-08-28T21:38:36.769Z,15.08
2023-08-28T21:43:39.628Z,15.10
2023-08-28T21:48:43.015Z,15.06
2023-08-28T21:54:04.676Z,15.01
2023-08-28T21:59:26.415Z,14.98
2023-08-28T22:04:48.493Z,14.96
2023-08-28T22:10:10.604Z,14.98
2023-08-28T22:15:14.766Z,15.02
2023-08-28T22:20:18.615Z,15.04
2023-08-28T22:25:21.613Z,15.09
2023-08-28T22:30:24.648Z,15.15
2023-08-28T22:35:27.615Z,15.22
2023-08-28T22:40:30.526Z,15.28
2023-08-28T22:45:33.372Z,15.32
2023-08-28T22:50:36.210Z,15.36
2023-08-28T22:55:39.155Z,15.38
2023-08-28T23:00:41.962Z,15.40
2023-08-28T23:05:48.503Z,15.43
2023-08-28T23:10:51.513Z,15.45
2023-08-28T23:15:54.683Z,15.44
2023-08-28T23:20:58.206Z,15.37
2023-08-28T23:26:01.079Z,15.33
2023-08-28T23:31:08.861Z,15.29
2023-08-28T23:36:12.208Z,15.25
2023-08-28T23:41:14.949Z,15.20
2023-08-28T23:46:18.016Z,15.13
2023-08-28T23:51:20.846Z,15.08
2023-08-28T23:56:24.040Z,15.04
